createdAt,value
2022-11-21T00:00:42.098Z,0.00
2022-11-21T00:01:42.147Z,0.00
2022-11-21T00:02:42.084Z,0.00
2022-11-21T00:03:42.084Z,0.00
2022-11-21T00:04:42.070Z,0.00
2022-11-21T00:05:42.067Z,0.00
2022-11-21T00:06:42.060Z,0.00
2022-11-21T00:07:42.086Z,0.00
2022-11-21T00:08:42.053Z,0.00
2022-11-21T00:09:42.037Z,0.00
2022-11-21T00:10:42.034Z,0.00
2022-11-21T00:11:42.042Z,0.00
2022-11-21T00:12:42.022Z,0.00
2022-11-21T00:13:42.020Z,0.00
2022-11-21T00:14:42.019Z,0.00
2022-11-21T00:15:42.006Z,0.00
2022-11-21T00:16:41.997Z,0.00
2022-11-21T00:17:41.996Z,0.00
2022-11-21T00:18:41.985Z,0.00
2022-11-21T00:19:41.985Z,0.00
2022-11-21T00:20:41.972Z,0.00
2022-11-21T00:21:41.973Z,0.00
2022-11-21T00:22:41.967Z,0.00
2022-11-21T00:23:41.962Z,0.00
2022-11-21T00:24:41.947Z,0.00
2022-11-21T00:25:41.948Z,0.00
2022-11-21T00:26:41.940Z,0.00
2022-11-21T00:27:41.938Z,0.00
2022-11-21T00:28:41.931Z,0.00
2022-11-21T00:29:41.922Z,0.00
2022-11-21T00:30:41.914Z,0.00
2022-11-21T00:31:41.910Z,0.00
2022-11-21T00:32:41.906Z,0.00
2022-11-21T00:33:41.901Z,0.00
2022-11-21T00:34:41.890Z,0.00
2022-11-21T00:35:41.893Z,0.00
2022-11-21T00:36:41.877Z,0.00
2022-11-21T00:37:41.874Z,0.00
2022-11-21T00:38:41.865Z,0.00
2022-11-21T00:39:41.871Z,0.00
2022-11-21T00:40:41.859Z,0.00
2022-11-21T00:41:41.851Z,0.00
2022-11-21T00:42:41.840Z,0.00
2022-11-21T00:43:41.838Z,0.00
2022-11-21T00:44:41.832Z,0.00
2022-11-21T00:45:41.829Z,0.00
2022-11-21T00:46:41.825Z,0.00
2022-11-21T00:47:41.816Z,0.00
2022-11-21T00:48:41.811Z,0.00
2022-11-21T00:49:41.803Z,0.00
2022-11-21T00:50:41.794Z,0.00
2022-11-21T00:51:41.794Z,0.00
2022-11-21T00:52:41.791Z,0.00
2022-11-21T00:53:41.781Z,0.00
2022-11-21T00:54:41.779Z,0.00
2022-11-21T00:55:41.770Z,0.00
2022-11-21T00:56:41.761Z,0.00
2022-11-21T00:57:41.754Z,0.00
2022-11-21T00:58:41.746Z,0.00
2022-11-21T00:59:41.746Z,0.00
2022-11-21T01:00:41.787Z,0.00
2022-11-21T01:01:41.736Z,0.00
2022-11-21T01:02:41.727Z,0.00
2022-11-21T01:03:41.748Z,0.00
2022-11-21T01:04:41.710Z,0.00
2022-11-21T01:05:41.714Z,0.00
2022-11-21T01:06:41.699Z,0.00
2022-11-21T01:07:41.806Z,0.00
2022-11-21T01:08:41.687Z,0.00
2022-11-21T01:09:41.687Z,0.00
2022-11-21T01:10:41.682Z,0.00
2022-11-21T01:11:41.677Z,0.00
2022-11-21T01:12:41.689Z,0.00
2022-11-21T01:13:41.663Z,0.00
2022-11-21T01:14:41.650Z,0.00
2022-11-21T01:15:41.651Z,0.00
2022-11-21T01:16:41.646Z,0.00
2022-11-21T01:17:41.638Z,0.00
2022-11-21T01:18:41.633Z,0.00
2022-11-21T01:19:41.628Z,0.00
2022-11-21T01:20:41.617Z,0.00
2022-11-21T01:21:41.616Z,0.00
2022-11-21T01:22:41.610Z,0.00
2022-11-21T01:23:41.603Z,0.00
2022-11-21T01:24:41.604Z,0.00
2022-11-21T01:25:41.594Z,0.00
2022-11-21T01:26:41.583Z,0.00
2022-11-21T01:27:41.582Z,0.00
2022-11-21T01:28:41.592Z,0.00
2022-11-21T01:29:41.567Z,0.00
2022-11-21T01:30:41.561Z,0.00
2022-11-21T01:31:41.555Z,0.00
2022-11-21T01:32:41.550Z,0.00
2022-11-21T01:33:41.552Z,0.00
2022-11-21T01:34:41.538Z,0.00
2022-11-21T01:35:41.533Z,0.00
2022-11-21T01:36:41.529Z,0.00
2022-11-21T01:37:41.520Z,0.00
2022-11-21T01:38:41.512Z,0.00
2022-11-21T01:39:41.509Z,0.00
2022-11-21T01:40:41.504Z,0.00
2022-11-21T01:41:41.496Z,0.00
2022-11-21T01:42:41.492Z,0.00
2022-11-21T01:43:41.490Z,0.00
2022-11-21T01:44:41.503Z,0.00
2022-11-21T01:45:41.473Z,0.00
2022-11-21T01:46:41.469Z,0.00
2022-11-21T01:47:41.465Z,0.00
2022-11-21T01:48:41.454Z,0.00
2022-11-21T01:49:41.461Z,0.00
2022-11-21T01:50:41.443Z,0.00
2022-11-21T01:51:41.438Z,0.00
2022-11-21T01:52:41.430Z,0.00
2022-11-21T01:53:41.433Z,0.00
2022-11-21T01:54:41.422Z,0.00
2022-11-21T01:55:41.422Z,0.00
2022-11-21T01:56:41.406Z,0.00
2022-11-21T01:57:41.404Z,0.00
2022-11-21T01:58:41.394Z,0.00
2022-11-21T01:59:41.396Z,0.00
2022-11-21T02:00:41.458Z,0.00
2022-11-21T02:01:41.382Z,0.00
2022-11-21T02:02:41.378Z,0.00
2022-11-21T02:03:41.374Z,0.00
2022-11-21T02:04:41.365Z,0.00
2022-11-21T02:05:41.360Z,0.00
2022-11-21T02:06:41.351Z,0.00
2022-11-21T02:07:41.505Z,0.00
2022-11-21T02:08:41.339Z,0.00
2022-11-21T02:09:41.333Z,0.00
2022-11-21T02:10:41.330Z,0.00
2022-11-21T02:11:41.320Z,0.00
2022-11-21T02:12:41.320Z,0.00
2022-11-21T02:13:41.314Z,0.00
2022-11-21T02:14:41.304Z,0.00
2022-11-21T02:15:41.300Z,0.00
2022-11-21T02:16:41.313Z,0.00
2022-11-21T02:17:41.289Z,0.00
2022-11-21T02:18:41.280Z,0.00
2022-11-21T02:19:41.278Z,0.00
2022-11-21T02:20:41.266Z,0.00
2022-11-21T02:21:41.269Z,0.00
2022-11-21T02:22:41.253Z,0.00
2022-11-21T02:23:41.250Z,0.00
2022-11-21T02:24:41.249Z,0.00
2022-11-21T02:25:41.240Z,0.00
2022-11-21T02:26:41.233Z,0.00
2022-11-21T02:27:41.224Z,0.00
2022-11-21T02:28:41.222Z,0.00
2022-11-21T02:29:41.221Z,0.00
2022-11-21T02:30:41.215Z,0.00
2022-11-21T02:31:41.205Z,0.00
2022-11-21T02:32:41.217Z,0.00
2022-11-21T02:33:41.198Z,0.00
2022-11-21T02:34:41.189Z,0.00
2022-11-21T02:35:41.180Z,0.00
2022-11-21T02:36:41.175Z,0.00
2022-11-21T02:37:41.165Z,0.00
2022-11-21T02:38:41.168Z,0.00
2022-11-21T02:39:41.157Z,0.00
2022-11-21T02:40:41.156Z,0.00
2022-11-21T02:41:41.146Z,0.00
2022-11-21T02:42:41.145Z,0.00
2022-11-21T02:43:41.136Z,0.00
2022-11-21T02:44:41.128Z,0.00
2022-11-21T02:45:41.117Z,0.00
2022-11-21T02:46:41.116Z,0.00
2022-11-21T02:47:41.107Z,0.00
2022-11-21T02:48:41.129Z,0.00
2022-11-21T02:49:41.094Z,0.00
2022-11-21T02:50:41.093Z,0.00
2022-11-21T02:51:41.087Z,0.00
2022-11-21T02:52:41.084Z,0.00
2022-11-21T02:53:41.072Z,0.00
2022-11-21T02:54:41.068Z,0.00
2022-11-21T02:55:41.063Z,0.00
2022-11-21T02:56:41.054Z,0.00
2022-11-21T02:57:41.051Z,0.00
2022-11-21T02:58:41.044Z,0.00
2022-11-21T02:59:41.035Z,0.00
2022-11-21T03:00:41.142Z,0.00
2022-11-21T03:01:41.026Z,0.00
2022-11-21T03:02:41.022Z,0.00
2022-11-21T03:03:41.016Z,0.00
2022-11-21T03:04:41.028Z,0.00
2022-11-21T03:05:41.002Z,0.00
2022-11-21T03:06:40.998Z,0.00
2022-11-21T03:07:41.081Z,0.00
2022-11-21T03:08:40.986Z,0.00
2022-11-21T03:09:40.980Z,0.00
2022-11-21T03:10:40.981Z,0.00
2022-11-21T03:11:40.966Z,0.00
2022-11-21T03:12:40.968Z,0.00
2022-11-21T03:13:40.960Z,0.00
2022-11-21T03:14:40.956Z,0.00
2022-11-21T03:15:40.944Z,0.00
2022-11-21T03:16:40.948Z,0.00
2022-11-21T03:17:40.943Z,0.00
2022-11-21T03:18:40.924Z,0.00
2022-11-21T03:19:40.917Z,0.00
2022-11-21T03:20:40.937Z,0.00
2022-11-21T03:21:40.908Z,0.00
2022-11-21T03:22:40.905Z,0.00
2022-11-21T03:23:40.895Z,0.00
2022-11-21T03:24:40.896Z,0.00
2022-11-21T03:25:40.882Z,0.00
2022-11-21T03:26:40.879Z,0.00
2022-11-21T03:27:40.872Z,0.00
2022-11-21T03:28:40.875Z,0.00
2022-11-21T03:29:40.859Z,0.00
2022-11-21T03:30:40.855Z,0.00
2022-11-21T03:31:40.851Z,0.00
2022-11-21T03:32:40.860Z,0.00
2022-11-21T03:33:40.843Z,0.00
2022-11-21T03:34:40.836Z,0.00
2022-11-21T03:35:40.829Z,0.00
2022-11-21T03:36:40.845Z,0.00
2022-11-21T03:37:40.814Z,0.00
2022-11-21T03:38:40.819Z,0.00
2022-11-21T03:39:40.809Z,0.00
2022-11-21T03:40:40.801Z,0.00
2022-11-21T03:41:40.791Z,0.00
2022-11-21T03:42:40.788Z,0.00
2022-11-21T03:43:40.785Z,0.00
2022-11-21T03:44:40.782Z,0.00
2022-11-21T03:45:40.765Z,0.00
2022-11-21T03:46:40.765Z,0.00
2022-11-21T03:47:40.754Z,0.00
2022-11-21T03:48:40.751Z,0.00
2022-11-21T03:49:40.747Z,0.00
2022-11-21T03:50:40.742Z,0.00
2022-11-21T03:51:40.733Z,0.00
2022-11-21T03:52:40.761Z,0.00
2022-11-21T03:53:40.721Z,0.00
2022-11-21T03:54:40.719Z,0.00
2022-11-21T03:55:40.714Z,0.00
2022-11-21T03:56:40.703Z,0.00
2022-11-21T03:57:40.699Z,0.00
2022-11-21T03:58:40.694Z,0.00
2022-11-21T03:59:40.686Z,0.00
2022-11-21T04:00:40.681Z,0.00
2022-11-21T04:01:40.859Z,0.00
2022-11-21T04:02:40.683Z,0.00
2022-11-21T04:03:40.669Z,0.00
2022-11-21T04:04:40.658Z,0.00
2022-11-21T04:05:40.647Z,0.00
2022-11-21T04:06:40.646Z,0.00
2022-11-21T04:07:40.681Z,0.00
2022-11-21T04:08:40.664Z,0.00
2022-11-21T04:09:40.626Z,0.00
2022-11-21T04:10:40.622Z,0.00
2022-11-21T04:11:40.627Z,0.00
2022-11-21T04:12:40.612Z,0.00
2022-11-21T04:13:40.602Z,0.00
2022-11-21T04:14:40.597Z,0.00
2022-11-21T04:15:40.592Z,0.00
2022-11-21T04:16:40.592Z,0.00
2022-11-21T04:17:40.579Z,0.00
2022-11-21T04:18:40.593Z,0.00
2022-11-21T04:19:40.568Z,0.00
2022-11-21T04:20:40.566Z,0.00
2022-11-21T04:21:40.553Z,0.00
2022-11-21T04:22:40.550Z,0.00
2022-11-21T04:23:40.610Z,0.00
2022-11-21T04:24:40.568Z,0.00
2022-11-21T04:25:40.538Z,0.00
2022-11-21T04:26:40.531Z,0.00
2022-11-21T04:27:40.520Z,0.00
2022-11-21T04:28:40.521Z,0.00
2022-11-21T04:29:40.508Z,0.00
2022-11-21T04:30:40.506Z,0.00
2022-11-21T04:31:40.500Z,0.00
2022-11-21T04:32:40.499Z,0.00
2022-11-21T04:33:40.484Z,0.00
2022-11-21T04:34:40.484Z,0.00
2022-11-21T04:35:40.477Z,0.00
2022-11-21T04:36:40.564Z,0.00
2022-11-21T04:37:40.471Z,0.00
2022-11-21T04:38:40.472Z,0.00
2022-11-21T04:39:40.453Z,0.00
2022-11-21T04:40:40.472Z,0.00
2022-11-21T04:41:40.439Z,0.00
2022-11-21T04:42:40.436Z,0.00
2022-11-21T04:43:40.430Z,0.00
2022-11-21T04:44:40.426Z,0.00
2022-11-21T04:45:40.416Z,0.00
2022-11-21T04:46:40.415Z,0.00
2022-11-21T04:47:40.412Z,0.00
2022-11-21T04:48:40.410Z,0.00
2022-11-21T04:49:40.393Z,0.00
2022-11-21T04:50:40.389Z,0.00
2022-11-21T04:51:40.381Z,0.00
2022-11-21T04:52:40.381Z,0.00
2022-11-21T04:53:43.145Z,0.00
2022-11-21T04:54:40.367Z,0.00
2022-11-21T04:55:40.363Z,0.00
2022-11-21T04:56:40.375Z,0.00
2022-11-21T04:57:40.357Z,0.00
2022-11-21T04:58:40.347Z,0.00
2022-11-21T04:59:40.339Z,0.00
2022-11-21T05:00:40.336Z,0.00
2022-11-21T05:01:40.356Z,0.00
2022-11-21T05:02:40.327Z,0.00
2022-11-21T05:03:40.315Z,0.00
2022-11-21T05:04:40.314Z,0.00
2022-11-21T05:05:40.302Z,0.00
2022-11-21T05:06:40.311Z,0.00
2022-11-21T05:07:40.691Z,0.00
2022-11-21T05:08:40.285Z,0.00
2022-11-21T05:09:40.281Z,0.00
2022-11-21T05:10:40.278Z,0.00
2022-11-21T05:11:40.282Z,0.00
2022-11-21T05:12:40.289Z,0.00
2022-11-21T05:13:40.256Z,0.00
2022-11-21T05:14:40.261Z,0.00
2022-11-21T05:15:40.248Z,0.00
2022-11-21T05:16:40.247Z,0.00
2022-11-21T05:17:40.232Z,0.00
2022-11-21T05:18:40.237Z,0.00
2022-11-21T05:19:40.225Z,0.00
2022-11-21T05:20:40.223Z,0.00
2022-11-21T05:21:40.217Z,0.00
2022-11-21T05:22:40.213Z,0.00
2022-11-21T05:23:40.203Z,0.00
2022-11-21T05:24:40.197Z,0.00
2022-11-21T05:25:40.200Z,0.00
2022-11-21T05:26:40.187Z,0.00
2022-11-21T05:27:40.182Z,0.00
2022-11-21T05:28:40.197Z,0.00
2022-11-21T05:29:40.167Z,0.00
2022-11-21T05:30:40.164Z,0.00
2022-11-21T05:31:40.154Z,0.00
2022-11-21T05:32:40.155Z,0.00
2022-11-21T05:33:40.149Z,0.00
2022-11-21T05:34:40.143Z,0.00
2022-11-21T05:35:43.153Z,0.00
2022-11-21T05:36:40.135Z,0.00
2022-11-21T05:37:40.123Z,0.00
2022-11-21T05:38:40.118Z,0.00
2022-11-21T05:39:40.111Z,0.00
2022-11-21T05:40:40.110Z,0.00
2022-11-21T05:41:40.095Z,0.00
2022-11-21T05:42:40.093Z,0.00
2022-11-21T05:43:40.088Z,0.00
2022-11-21T05:44:40.124Z,0.00
2022-11-21T05:45:40.079Z,0.00
2022-11-21T05:46:40.076Z,0.00
2022-11-21T05:47:40.061Z,0.00
2022-11-21T05:48:40.060Z,0.00
2022-11-21T05:49:40.055Z,0.00
2022-11-21T05:50:40.049Z,0.00
2022-11-21T05:51:40.041Z,0.00
2022-11-21T05:52:40.045Z,0.00
2022-11-21T05:53:40.030Z,0.00
2022-11-21T05:54:43.629Z,0.00
2022-11-21T05:55:40.025Z,0.00
2022-11-21T05:56:40.025Z,0.00
2022-11-21T05:57:40.012Z,4.00
2022-11-21T05:58:40.007Z,4.00
2022-11-21T05:59:40.001Z,0.00
2022-11-21T06:00:40.016Z,0.00
2022-11-21T06:01:39.997Z,0.00
2022-11-21T06:02:40.044Z,0.00
2022-11-21T06:03:39.977Z,0.00
2022-11-21T06:04:39.979Z,0.00
2022-11-21T06:05:39.962Z,0.00
2022-11-21T06:06:39.961Z,4.00
2022-11-21T06:07:40.032Z,4.00
2022-11-21T06:08:39.958Z,0.00
2022-11-21T06:09:39.941Z,4.00
2022-11-21T06:10:39.940Z,4.00
2022-11-21T06:11:39.932Z,4.00
2022-11-21T06:12:39.930Z,4.00
2022-11-21T06:13:39.922Z,8.00
2022-11-21T06:14:39.919Z,4.00
2022-11-21T06:15:39.915Z,8.00
2022-11-21T06:16:39.930Z,4.00
2022-11-21T06:17:39.899Z,8.00
2022-11-21T06:18:39.895Z,12.00
2022-11-21T06:19:39.885Z,12.00
2022-11-21T06:20:39.894Z,8.00
2022-11-21T06:21:39.878Z,12.00
2022-11-21T06:22:39.876Z,12.00
2022-11-21T06:23:39.868Z,16.00
2022-11-21T06:24:39.868Z,16.00
2022-11-21T06:25:39.856Z,20.00
2022-11-21T06:26:39.853Z,24.00
2022-11-21T06:27:39.846Z,24.00
2022-11-21T06:28:39.844Z,28.00
2022-11-21T06:29:39.837Z,32.00
2022-11-21T06:30:39.828Z,32.00
2022-11-21T06:31:39.823Z,40.00
2022-11-21T06:32:39.870Z,44.00
2022-11-21T06:33:39.818Z,48.00
2022-11-21T06:34:39.809Z,52.00
2022-11-21T06:35:39.802Z,60.00
2022-11-21T06:36:39.798Z,64.00
2022-11-21T06:37:39.790Z,64.00
2022-11-21T06:38:39.782Z,76.00
2022-11-21T06:39:39.783Z,80.00
2022-11-21T06:40:39.771Z,88.00
2022-11-21T06:41:39.769Z,100.00
2022-11-21T06:42:39.778Z,108.00
2022-11-21T06:43:39.764Z,116.00
2022-11-21T06:44:39.752Z,120.00
2022-11-21T06:45:39.751Z,128.00
2022-11-21T06:46:39.742Z,132.00
2022-11-21T06:47:39.738Z,144.00
2022-11-21T06:48:39.752Z,148.00
2022-11-21T06:49:39.732Z,156.00
2022-11-21T06:50:39.724Z,168.00
2022-11-21T06:51:39.724Z,180.00
2022-11-21T06:52:39.709Z,192.00
2022-11-21T06:53:39.703Z,208.00
2022-11-21T06:54:39.701Z,220.00
2022-11-21T06:55:39.700Z,228.00
2022-11-21T06:56:39.686Z,236.00
2022-11-21T06:57:39.685Z,252.00
2022-11-21T06:58:39.678Z,272.00
2022-11-21T06:59:39.676Z,292.00
2022-11-21T07:00:39.668Z,304.00
2022-11-21T07:01:39.747Z,320.00
2022-11-21T07:02:39.654Z,332.00
2022-11-21T07:03:39.653Z,340.00
2022-11-21T07:04:39.668Z,348.00
2022-11-21T07:05:39.641Z,352.00
2022-11-21T07:06:39.632Z,356.00
2022-11-21T07:07:39.689Z,360.00
2022-11-21T07:08:39.625Z,368.00
2022-11-21T07:09:39.631Z,380.00
2022-11-21T07:10:42.574Z,396.00
2022-11-21T07:11:39.613Z,420.00
2022-11-21T07:12:39.601Z,452.00
2022-11-21T07:13:39.604Z,492.00
2022-11-21T07:14:39.592Z,528.00
2022-11-21T07:15:39.590Z,556.00
2022-11-21T07:16:39.586Z,572.00
2022-11-21T07:17:39.582Z,580.00
2022-11-21T07:18:39.572Z,584.00
2022-11-21T07:19:41.029Z,588.00
2022-11-21T07:20:39.582Z,616.00
2022-11-21T07:21:39.560Z,660.00
2022-11-21T07:22:39.548Z,696.00
2022-11-21T07:23:39.548Z,736.00
2022-11-21T07:24:39.540Z,784.00
2022-11-21T07:25:39.538Z,836.00
2022-11-21T07:26:39.537Z,912.00
2022-11-21T07:27:39.529Z,984.00
2022-11-21T07:28:39.523Z,1036.00
2022-11-21T07:29:39.526Z,1072.00
2022-11-21T07:30:39.507Z,1132.00
2022-11-21T07:31:39.555Z,1152.00
2022-11-21T07:32:39.504Z,1164.00
2022-11-21T07:33:39.503Z,1164.00
2022-11-21T07:34:39.489Z,1196.00
2022-11-21T07:35:39.486Z,1196.00
2022-11-21T07:36:39.502Z,1196.00
2022-11-21T07:37:39.483Z,1204.00
2022-11-21T07:38:39.472Z,1252.00
2022-11-21T07:39:39.469Z,1328.00
2022-11-21T07:40:39.460Z,1452.00
2022-11-21T07:41:39.457Z,1516.00
2022-11-21T07:42:39.456Z,1544.00
2022-11-21T07:43:39.444Z,1544.00
2022-11-21T07:44:39.434Z,1516.00
2022-11-21T07:45:39.434Z,1472.00
2022-11-21T07:46:39.428Z,1408.00
2022-11-21T07:47:39.426Z,1332.00
2022-11-21T07:48:39.418Z,1268.00
2022-11-21T07:49:39.418Z,1216.00
2022-11-21T07:50:39.408Z,1188.00
2022-11-21T07:51:39.404Z,1164.00
2022-11-21T07:52:39.419Z,1144.00
2022-11-21T07:53:39.395Z,1144.00
2022-11-21T07:54:39.389Z,1152.00
2022-11-21T07:55:40.965Z,1176.00
2022-11-21T07:56:39.382Z,1204.00
2022-11-21T07:57:39.375Z,1232.00
2022-11-21T07:58:39.366Z,1260.00
2022-11-21T07:59:39.360Z,1288.00
2022-11-21T08:00:39.358Z,1320.00
2022-11-21T08:01:45.020Z,1364.00
2022-11-21T08:02:39.345Z,1412.00
2022-11-21T08:03:39.343Z,1544.00
2022-11-21T08:04:39.335Z,2052.00
2022-11-21T08:05:39.384Z,1612.00
2022-11-21T08:06:39.322Z,1496.00
2022-11-21T08:07:39.377Z,1560.00
2022-11-21T08:08:39.340Z,1704.00
2022-11-21T08:09:39.933Z,1924.00
2022-11-21T08:10:39.301Z,2280.00
2022-11-21T08:11:39.299Z,2752.00
2022-11-21T08:12:39.293Z,2768.00
2022-11-21T08:13:39.283Z,2788.00
2022-11-21T08:14:39.276Z,2752.00
2022-11-21T08:15:39.280Z,2884.00
2022-11-21T08:16:39.271Z,3096.00
2022-11-21T08:17:39.270Z,3156.00
2022-11-21T08:18:39.260Z,3128.00
2022-11-21T08:19:39.261Z,3140.00
2022-11-21T08:20:39.261Z,3244.00
2022-11-21T08:21:39.252Z,3340.00
2022-11-21T08:22:39.237Z,3340.00
2022-11-21T08:23:39.238Z,3376.00
2022-11-21T08:24:39.247Z,3416.00
2022-11-21T08:25:39.225Z,3412.00
2022-11-21T08:26:39.220Z,3384.00
2022-11-21T08:27:39.219Z,3436.00
2022-11-21T08:28:39.207Z,3440.00
2022-11-21T08:29:39.205Z,3528.00
2022-11-21T08:30:39.203Z,3728.00
2022-11-21T08:31:39.248Z,3804.00
2022-11-21T08:32:39.188Z,3888.00
2022-11-21T08:33:39.185Z,3960.00
2022-11-21T08:34:39.181Z,4140.00
2022-11-21T08:35:39.183Z,4472.00
2022-11-21T08:36:39.169Z,4500.00
2022-11-21T08:37:39.168Z,4364.00
2022-11-21T08:38:39.160Z,4780.00
2022-11-21T08:39:39.158Z,4600.00
2022-11-21T08:40:39.184Z,4328.00
2022-11-21T08:41:39.149Z,4880.00
2022-11-21T08:42:39.140Z,5296.00
2022-11-21T08:43:39.142Z,5528.00
2022-11-21T08:44:39.132Z,5036.00
2022-11-21T08:45:39.132Z,4388.00
2022-11-21T08:46:39.121Z,3956.00
2022-11-21T08:47:39.123Z,4132.00
2022-11-21T08:48:39.113Z,3900.00
2022-11-21T08:49:39.117Z,3120.00
2022-11-21T08:50:39.116Z,3008.00
2022-11-21T08:51:39.107Z,2920.00
2022-11-21T08:52:39.099Z,3012.00
2022-11-21T08:53:39.096Z,2856.00
2022-11-21T08:54:39.088Z,2620.00
2022-11-21T08:55:39.082Z,2380.00
2022-11-21T08:56:39.098Z,2556.00
2022-11-21T08:57:39.076Z,2524.00
2022-11-21T08:58:39.066Z,2832.00
2022-11-21T08:59:39.065Z,2732.00
2022-11-21T09:00:39.064Z,2232.00
2022-11-21T09:01:39.109Z,2448.00
2022-11-21T09:02:39.049Z,2688.00
2022-11-21T09:03:39.054Z,2688.00
2022-11-21T09:04:39.061Z,2492.00
2022-11-21T09:05:39.047Z,2632.00
2022-11-21T09:06:39.039Z,2584.00
2022-11-21T09:07:39.100Z,2296.00
2022-11-21T09:08:39.023Z,2340.00
2022-11-21T09:09:39.021Z,2104.00
2022-11-21T09:10:39.016Z,1996.00
2022-11-21T09:11:39.014Z,2140.00
2022-11-21T09:12:39.027Z,2172.00
2022-11-21T09:13:39.010Z,2236.00
2022-11-21T09:14:39.000Z,2176.00
2022-11-21T09:15:38.994Z,2468.00
2022-11-21T09:16:38.988Z,2640.00
2022-11-21T09:17:38.993Z,2676.00
2022-11-21T09:18:38.983Z,2656.00
2022-11-21T09:19:38.977Z,2708.00
2022-11-21T09:20:39.047Z,2720.00
2022-11-21T09:21:38.968Z,2632.00
2022-11-21T09:22:38.961Z,2760.00
2022-11-21T09:23:38.959Z,3024.00
2022-11-21T09:24:38.955Z,2940.00
2022-11-21T09:25:38.956Z,2692.00
2022-11-21T09:26:38.949Z,2692.00
2022-11-21T09:27:38.939Z,2852.00
2022-11-21T09:28:38.958Z,2688.00
2022-11-21T09:29:38.929Z,2640.00
2022-11-21T09:30:38.930Z,2476.00
2022-11-21T09:31:38.923Z,2400.00
2022-11-21T09:32:38.918Z,2432.00
2022-11-21T09:33:38.919Z,2508.00
2022-11-21T09:34:38.908Z,2528.00
2022-11-21T09:35:38.907Z,2600.00
2022-11-21T09:36:38.953Z,2712.00
2022-11-21T09:37:38.904Z,2796.00
2022-11-21T09:38:38.893Z,2924.00
2022-11-21T09:39:38.890Z,2816.00
2022-11-21T09:40:38.882Z,2740.00
2022-11-21T09:41:38.878Z,2828.00
2022-11-21T09:42:38.874Z,2900.00
2022-11-21T09:43:38.869Z,2916.00
2022-11-21T09:44:38.886Z,2968.00
2022-11-21T09:45:38.877Z,2868.00
2022-11-21T09:46:38.865Z,2780.00
2022-11-21T09:47:38.858Z,2732.00
2022-11-21T09:48:38.850Z,2780.00
2022-11-21T09:49:38.842Z,2828.00
2022-11-21T09:50:38.840Z,2880.00
2022-11-21T09:51:38.838Z,2968.00
2022-11-21T09:52:38.834Z,2932.00
2022-11-21T09:53:38.826Z,2784.00
2022-11-21T09:54:38.820Z,2668.00
2022-11-21T09:55:38.822Z,2804.00
2022-11-21T09:56:38.814Z,2780.00
2022-11-21T09:57:38.809Z,2668.00
2022-11-21T09:58:38.802Z,2684.00
2022-11-21T09:59:38.811Z,2812.00
2022-11-21T10:00:38.866Z,2816.00
2022-11-21T10:01:38.788Z,2820.00
2022-11-21T10:02:38.783Z,2868.00
2022-11-21T10:03:38.805Z,2900.00
2022-11-21T10:04:38.780Z,2924.00
2022-11-21T10:05:38.778Z,2808.00
2022-11-21T10:06:38.770Z,2672.00
2022-11-21T10:07:38.822Z,2656.00
2022-11-21T10:08:38.758Z,2788.00
2022-11-21T10:09:38.762Z,2928.00
2022-11-21T10:10:38.749Z,3112.00
2022-11-21T10:11:38.755Z,2984.00
2022-11-21T10:12:38.762Z,2824.00
2022-11-21T10:13:38.739Z,2756.00
2022-11-21T10:14:38.735Z,2956.00
2022-11-21T10:15:38.732Z,3268.00
2022-11-21T10:16:42.042Z,3184.00
2022-11-21T10:17:38.743Z,2788.00
2022-11-21T10:18:38.720Z,2772.00
2022-11-21T10:19:38.710Z,2852.00
2022-11-21T10:20:38.701Z,2812.00
2022-11-21T10:21:38.754Z,2876.00
2022-11-21T10:22:38.697Z,3032.00
2022-11-21T10:23:39.027Z,2924.00
2022-11-21T10:24:38.690Z,2772.00
2022-11-21T10:25:38.703Z,2620.00
2022-11-21T10:26:38.684Z,2604.00
2022-11-21T10:27:38.682Z,2544.00
2022-11-21T10:28:38.679Z,2420.00
2022-11-21T10:29:38.671Z,2432.00
2022-11-21T10:30:38.685Z,2384.00
2022-11-21T10:31:38.660Z,2368.00
2022-11-21T10:32:38.688Z,2256.00
2022-11-21T10:33:38.653Z,2308.00
2022-11-21T10:34:38.646Z,2404.00
2022-11-21T10:35:38.651Z,2392.00
2022-11-21T10:36:38.682Z,2240.00
2022-11-21T10:37:38.644Z,2212.00
2022-11-21T10:38:38.628Z,2232.00
2022-11-21T10:39:38.634Z,2240.00
2022-11-21T10:40:38.630Z,2312.00
2022-11-21T10:41:38.618Z,2340.00
2022-11-21T10:42:38.613Z,2256.00
2022-11-21T10:43:38.611Z,2240.00
2022-11-21T10:44:38.623Z,2236.00
2022-11-21T10:45:38.607Z,2248.00
2022-11-21T10:46:38.598Z,2140.00
2022-11-21T10:47:38.599Z,2032.00
2022-11-21T10:48:38.618Z,2072.00
2022-11-21T10:49:38.585Z,2264.00
2022-11-21T10:50:38.577Z,2384.00
2022-11-21T10:51:38.579Z,2492.00
2022-11-21T10:52:38.572Z,2700.00
2022-11-21T10:53:38.566Z,2564.00
2022-11-21T10:54:38.560Z,2484.00
2022-11-21T10:55:38.553Z,2424.00
2022-11-21T10:56:38.560Z,2536.00
2022-11-21T10:57:38.556Z,2500.00
2022-11-21T10:58:38.546Z,2440.00
2022-11-21T10:59:38.542Z,2552.00
2022-11-21T11:00:38.610Z,2464.00
2022-11-21T11:01:38.534Z,2484.00
2022-11-21T11:02:38.547Z,2428.00
2022-11-21T11:03:38.521Z,2300.00
2022-11-21T11:04:47.453Z,2216.00
2022-11-21T11:05:38.515Z,2140.00
2022-11-21T11:06:38.512Z,2136.00
2022-11-21T11:07:38.609Z,2000.00
2022-11-21T11:08:38.508Z,1820.00
2022-11-21T11:09:38.495Z,1700.00
2022-11-21T11:10:38.503Z,1712.00
2022-11-21T11:11:38.494Z,1736.00
2022-11-21T11:12:38.489Z,1784.00
2022-11-21T11:13:45.866Z,1772.00
2022-11-21T11:14:38.480Z,1728.00
2022-11-21T11:15:38.469Z,1756.00
2022-11-21T11:16:41.539Z,1788.00
2022-11-21T11:17:38.462Z,1764.00
2022-11-21T11:18:38.479Z,1704.00
2022-11-21T11:19:40.388Z,1828.00
2022-11-21T11:20:38.477Z,1860.00
2022-11-21T11:21:38.444Z,1876.00
2022-11-21T11:22:38.455Z,1796.00
2022-11-21T11:23:38.438Z,1832.00
2022-11-21T11:24:38.432Z,1844.00
2022-11-21T11:25:38.446Z,1860.00
2022-11-21T11:26:38.424Z,1856.00
2022-11-21T11:27:38.418Z,1956.00
2022-11-21T11:28:38.416Z,1980.00
2022-11-21T11:29:38.409Z,1908.00
2022-11-21T11:30:38.406Z,1896.00
2022-11-21T11:31:38.405Z,1956.00
2022-11-21T11:32:38.397Z,1972.00
2022-11-21T11:33:38.397Z,2084.00
2022-11-21T11:34:38.399Z,2132.00
2022-11-21T11:35:38.378Z,2128.00
2022-11-21T11:36:38.402Z,2260.00
2022-11-21T11:37:40.817Z,2316.00
2022-11-21T11:38:38.388Z,2252.00
2022-11-21T11:39:38.365Z,2144.00
2022-11-21T11:40:38.371Z,2096.00
2022-11-21T11:41:38.356Z,2056.00
2022-11-21T11:42:38.356Z,2020.00
2022-11-21T11:43:38.350Z,1916.00
2022-11-21T11:44:38.342Z,2012.00
2022-11-21T11:45:38.340Z,2096.00
2022-11-21T11:46:38.338Z,2032.00
2022-11-21T11:47:38.329Z,2032.00
2022-11-21T11:49:03.287Z,1964.00
2022-11-21T11:49:38.703Z,1868.00
2022-11-21T11:50:38.321Z,1868.00
2022-11-21T11:51:38.318Z,1916.00
2022-11-21T11:52:38.333Z,2120.00
2022-11-21T11:53:38.301Z,2160.00
2022-11-21T11:54:38.300Z,2176.00
2022-11-21T11:55:38.294Z,2160.00
2022-11-21T11:56:38.292Z,2148.00
2022-11-21T11:57:38.289Z,2156.00
2022-11-21T11:58:38.285Z,2136.00
2022-11-21T11:59:38.280Z,2104.00
2022-11-21T12:00:38.277Z,2092.00
2022-11-21T12:01:38.267Z,2124.00
2022-11-21T12:02:38.340Z,2300.00
2022-11-21T12:03:38.264Z,2440.00
2022-11-21T12:04:38.258Z,2488.00
2022-11-21T12:05:38.249Z,2496.00
2022-11-21T12:07:26.104Z,2436.00
2022-11-21T12:08:42.847Z,2436.00
2022-11-21T12:09:38.298Z,2488.00
2022-11-21T12:10:38.228Z,2660.00
2022-11-21T12:11:38.224Z,2592.00
2022-11-21T12:12:38.230Z,2412.00
2022-11-21T12:13:38.217Z,2340.00
2022-11-21T12:14:38.211Z,2300.00
2022-11-21T12:15:38.211Z,2328.00
2022-11-21T12:16:38.210Z,2244.00
2022-11-21T12:17:38.203Z,2172.00
2022-11-21T12:18:38.200Z,2020.00
2022-11-21T12:19:38.186Z,1884.00
2022-11-21T12:20:38.186Z,1828.00
2022-11-21T12:21:38.179Z,1768.00
2022-11-21T12:22:38.176Z,1840.00
2022-11-21T12:23:38.174Z,1948.00
2022-11-21T12:24:42.730Z,1996.00
2022-11-21T12:25:38.163Z,2052.00
2022-11-21T12:26:38.163Z,2152.00
2022-11-21T12:27:38.159Z,2108.00
2022-11-21T12:28:38.157Z,1984.00
2022-11-21T12:29:38.146Z,1876.00
2022-11-21T12:30:38.143Z,1844.00
2022-11-21T12:31:38.144Z,1848.00
2022-11-21T12:32:38.134Z,1804.00
2022-11-21T12:33:38.131Z,1732.00
2022-11-21T12:34:38.126Z,1704.00
2022-11-21T12:35:38.120Z,1768.00
2022-11-21T12:36:38.116Z,1808.00
2022-11-21T12:37:38.108Z,1832.00
2022-11-21T12:38:43.454Z,1896.00
2022-11-21T12:39:38.100Z,1908.00
2022-11-21T12:40:38.134Z,1856.00
2022-11-21T12:41:38.103Z,1784.00
2022-11-21T12:42:38.084Z,1744.00
2022-11-21T12:43:38.083Z,1716.00
2022-11-21T12:44:38.084Z,1788.00